sensor_id;sensor_type;location;lat;lon;timestamp;pressure;altitude;pressure_sealevel;temperature;humidity
49216;BME280;45943;53.148;8.204;2024-03-22T00:00:34;102004.19;;;13.49;100.00
49216;BME280;45943;53.148;8.204;2024-03-22T00:03:00;102013.19;;;13.37;100.00
49216;BME280;45943;53.148;8.204;2024-03-22T00:05:26;102011.44;;;13.36;100.00
49216;BME280;45943;53.148;8.204;2024-03-22T00:07:51;101997.09;;;13.48;100.00
49216;BME280;45943;53.148;8.204;2024-03-22T00:10:17;102005.81;;;13.52;100.00
49216;BME280;45943;53.148;8.204;2024-03-22T00:12:43;101991.28;;;13.42;100.00
49216;BME280;45943;53.148;8.204;2024-03-22T00:15:09;101998.44;;;13.54;100.00
49216;BME280;45943;53.148;8.204;2024-03-22T00:17:35;101994.66;;;13.57;100.00
49216;BME280;45943;53.148;8.204;2024-03-22T00:20:01;101995.75;;;13.54;100.00
49216;BME280;45943;53.148;8.204;2024-03-22T00:22:27;101979.69;;;13.53;100.00
49216;BME280;45943;53.148;8.204;2024-03-22T00:24:53;101976.59;;;13.46;100.00
49216;BME280;45943;53.148;8.204;2024-03-22T00:27:19;101984.34;;;13.51;100.00
49216;BME280;45943;53.148;8.204;2024-03-22T00:29:45;101975.59;;;13.60;100.00
49216;BME280;45943;53.148;8.204;2024-03-22T00:32:11;101972.75;;;13.61;100.00
49216;BME280;45943;53.148;8.204;2024-03-22T00:34:37;101975.78;;;13.57;100.00
49216;BME280;45943;53.148;8.204;2024-03-22T00:37:03;101964.56;;;13.63;100.00
49216;BME280;45943;53.148;8.204;2024-03-22T00:39:29;101956.22;;;13.66;100.00
49216;BME280;45943;53.148;8.204;2024-03-22T00:41:55;101951.69;;;13.66;100.00
49216;BME280;45943;53.148;8.204;2024-03-22T00:44:21;101949.34;;;13.62;100.00
49216;BME280;45943;53.148;8.204;2024-03-22T00:46:47;101945.81;;;13.61;100.00
49216;BME280;45943;53.148;8.204;2024-03-22T00:49:13;101946.53;;;13.63;100.00
49216;BME280;45943;53.148;8.204;2024-03-22T00:51:39;101945.06;;;13.59;100.00
49216;BME280;45943;53.148;8.204;2024-03-22T00:54:05;101926.03;;;13.49;100.00
49216;BME280;45943;53.148;8.204;2024-03-22T00:56:31;101922.84;;;13.56;100.00
49216;BME280;45943;53.148;8.204;2024-03-22T00:58:57;101925.53;;;13.56;100.00
49216;BME280;45943;53.148;8.204;2024-03-22T01:01:23;101936.63;;;13.64;100.00
49216;BME280;45943;53.148;8.204;2024-03-22T01:03:49;101928.41;;;13.65;100.00
49216;BME280;45943;53.148;8.204;2024-03-22T01:06:15;101920.31;;;13.65;100.00
49216;BME280;45943;53.148;8.204;2024-03-22T01:08:41;101920.97;;;13.69;100.00
49216;BME280;45943;53.148;8.204;2024-03-22T01:11:07;101911.63;;;13.62;100.00
49216;BME280;45943;53.148;8.204;2024-03-22T01:13:33;101908.91;;;13.62;100.00
49216;BME280;45943;53.148;8.204;2024-03-22T01:15:59;101901.81;;;13.61;100.00
49216;BME280;45943;53.148;8.204;2024-03-22T01:18:25;101889.88;;;13.52;100.00
49216;BME280;45943;53.148;8.204;2024-03-22T01:20:51;101889.75;;;13.54;100.00
49216;BME280;45943;53.148;8.204;2024-03-22T01:23:17;101878.50;;;13.48;100.00
49216;BME280;45943;53.148;8.204;2024-03-22T01:25:44;101869.69;;;13.58;100.00
49216;BME280;45943;53.148;8.204;2024-03-22T01:28:10;101859.41;;;13.63;100.00
49216;BME280;45943;53.148;8.204;2024-03-22T01:30:36;101848.00;;;13.59;100.00
49216;BME280;45943;53.148;8.204;2024-03-22T01:33:02;101851.03;;;13.55;100.00
49216;BME280;45943;53.148;8.204;2024-03-22T01:35:28;101836.56;;;13.44;100.00
49216;BME280;45943;53.148;8.204;2024-03-22T01:37:54;101840.88;;;13.47;100.00
49216;BME280;45943;53.148;8.204;2024-03-22T01:40:20;101841.63;;;13.49;100.00
49216;BME280;45943;53.148;8.204;2024-03-22T01:42:46;101842.59;;;13.48;100.00
49216;BME280;45943;53.148;8.204;2024-03-22T01:45:12;101843.56;;;13.47;100.00
49216;BME280;45943;53.148;8.204;2024-03-22T01:47:40;101843.09;;;13.53;100.00
49216;BME280;45943;53.148;8.204;2024-03-22T01:50:07;101848.00;;;13.59;100.00
49216;BME280;45943;53.148;8.204;2024-03-22T01:52:33;101841.50;;;13.62;100.00
49216;BME280;45943;53.148;8.204;2024-03-22T01:54:59;101839.06;;;13.59;100.00
49216;BME280;45943;53.148;8.204;2024-03-22T01:57:26;101834.13;;;13.53;100.00
49216;BME280;45943;53.148;8.204;2024-03-22T01:59:53;101827.78;;;13.65;100.00
49216;BME280;45943;53.148;8.204;2024-03-22T02:02:22;101822.28;;;13.66;100.00
49216;BME280;45943;53.148;8.204;2024-03-22T02:04:50;101811.09;;;13.48;100.00
49216;BME280;45943;53.148;8.204;2024-03-22T02:07:16;101813.44;;;13.64;100.00
49216;BME280;45943;53.148;8.204;2024-03-22T02:09:43;101817.00;;;13.65;100.00
49216;BME280;45943;53.148;8.204;2024-03-22T02:12:09;101813.69;;;13.50;100.00
49216;BME280;45943;53.148;8.204;2024-03-22T02:14:35;101809.16;;;13.51;100.00
49216;BME280;45943;53.148;8.204;2024-03-22T02:17:01;101805.09;;;13.56;100.00
49216;BME280;45943;53.148;8.204;2024-03-22T02:19:27;101803.53;;;13.65;100.00
49216;BME280;45943;53.148;8.204;2024-03-22T02:21:53;101792.63;;;13.66;100.00
49216;BME280;45943;53.148;8.204;2024-03-22T02:24:19;101785.88;;;13.61;100.00
49216;BME280;45943;53.148;8.204;2024-03-22T02:26:45;101774.97;;;13.73;100.00
49216;BME280;45943;53.148;8.204;2024-03-22T02:29:11;101768.72;;;13.62;100.00
49216;BME280;45943;53.148;8.204;2024-03-22T02:31:37;101765.44;;;13.58;100.00
49216;BME280;45943;53.148;8.204;2024-03-22T02:34:03;101765.50;;;13.57;100.00
49216;BME280;45943;53.148;8.204;2024-03-22T02:36:28;101762.34;;;13.63;100.00
49216;BME280;45943;53.148;8.204;2024-03-22T02:38:54;101757.56;;;13.66;100.00
49216;BME280;45943;53.148;8.204;2024-03-22T02:41:21;101759.78;;;13.72;100.00
49216;BME280;45943;53.148;8.204;2024-03-22T02:43:47;101747.16;;;13.62;100.00
49216;BME280;45943;53.148;8.204;2024-03-22T02:46:13;101740.56;;;13.77;100.00
49216;BME280;45943;53.148;8.204;2024-03-22T02:48:39;101737.84;;;13.66;100.00
49216;BME280;45943;53.148;8.204;2024-03-22T02:51:06;101735.25;;;13.64;100.00
49216;BME280;45943;53.148;8.204;2024-03-22T02:53:32;101725.84;;;13.59;100.00
49216;BME280;45943;53.148;8.204;2024-03-22T02:55:59;101714.69;;;13.63;100.00
49216;BME280;45943;53.148;8.204;2024-03-22T02:58:26;101705.25;;;13.58;100.00
49216;BME280;45943;53.148;8.204;2024-03-22T03:00:52;101713.94;;;13.72;100.00
49216;BME280;45943;53.148;8.204;2024-03-22T03:03:18;101714.56;;;13.76;100.00
49216;BME280;45943;53.148;8.204;2024-03-22T03:05:44;101709.91;;;13.78;100.00
49216;BME280;45943;53.148;8.204;2024-03-22T03:08:10;101715.53;;;13.86;100.00
49216;BME280;45943;53.148;8.204;2024-03-22T03:10:36;101721.56;;;13.90;100.00
49216;BME280;45943;53.148;8.204;2024-03-22T03:13:02;101711.75;;;13.89;100.00
49216;BME280;45943;53.148;8.204;2024-03-22T03:15:28;101707.56;;;13.85;100.00
49216;BME280;45943;53.148;8.204;2024-03-22T03:17:54;101706.84;;;13.83;100.00
49216;BME280;45943;53.148;8.204;2024-03-22T03:20:20;101708.31;;;13.87;100.00
49216;BME280;45943;53.148;8.204;2024-03-22T03:22:46;101697.53;;;13.87;100.00
49216;BME280;45943;53.148;8.204;2024-03-22T03:25:12;101690.06;;;13.79;100.00
49216;BME280;45943;53.148;8.204;2024-03-22T03:27:38;101693.59;;;13.80;100.00
49216;BME280;45943;53.148;8.204;2024-03-22T03:30:05;101687.22;;;13.81;100.00
49216;BME280;45943;53.148;8.204;2024-03-22T03:32:31;101687.84;;;13.84;100.00
49216;BME280;45943;53.148;8.204;2024-03-22T03:34:57;101677.91;;;13.85;100.00
49216;BME280;45943;53.148;8.204;2024-03-22T03:37:23;101673.59;;;13.93;100.00
49216;BME280;45943;53.148;8.204;2024-03-22T03:39:49;101665.78;;;13.79;100.00
49216;BME280;45943;53.148;8.204;2024-03-22T03:42:15;101672.16;;;13.89;100.00
49216;BME280;45943;53.148;8.204;2024-03-22T03:44:41;101653.59;;;13.96;100.00
49216;BME280;45943;53.148;8.204;2024-03-22T03:47:07;101658.63;;;14.00;100.00
49216;BME280;45943;53.148;8.204;2024-03-22T03:49:34;101646.41;;;13.96;100.00
49216;BME280;45943;53.148;8.204;2024-03-22T03:52:00;101643.22;;;13.91;100.00
49216;BME280;45943;53.148;8.204;2024-03-22T03:54:26;101647.25;;;13.97;100.00
49216;BME280;45943;53.148;8.204;2024-03-22T03:56:52;101641.22;;;13.93;100.00
49216;BME280;45943;53.148;8.204;2024-03-22T03:59:18;101635.13;;;13.91;100.00
49216;BME280;45943;53.148;8.204;2024-03-22T04:01:44;101627.75;;;13.93;100.00
49216;BME280;45943;53.148;8.204;2024-03-22T04:04:10;101625.16;;;14.03;100.00
49216;BME280;45943;53.148;8.204;2024-03-22T04:06:36;101629.56;;;14.04;100.00
49216;BME280;45943;53.148;8.204;2024-03-22T04:09:02;101625.53;;;13.98;100.00
49216;BME280;45943;53.148;8.204;2024-03-22T04:11:28;101625.28;;;14.01;100.00
49216;BME280;45943;53.148;8.204;2024-03-22T04:13:55;101618.03;;;14.02;100.00
49216;BME280;45943;53.148;8.204;2024-03-22T04:16:20;101619.13;;;14.11;100.00
49216;BME280;45943;53.148;8.204;2024-03-22T04:18:46;101622.41;;;14.14;100.00
49216;BME280;45943;53.148;8.204;2024-03-22T04:21:12;101627.69;;;14.16;100.00
49216;BME280;45943;53.148;8.204;2024-03-22T04:23:38;101629.16;;;14.20;100.00
49216;BME280;45943;53.148;8.204;2024-03-22T04:26:04;101626.72;;;14.17;100.00
49216;BME280;45943;53.148;8.204;2024-03-22T04:28:30;101628.31;;;14.19;100.00
49216;BME280;45943;53.148;8.204;2024-03-22T04:30:57;101628.03;;;14.22;100.00
49216;BME280;45943;53.148;8.204;2024-03-22T04:33:28;101628.88;;;14.23;100.00
49216;BME280;45943;53.148;8.204;2024-03-22T04:35:55;101621.06;;;14.20;100.00
49216;BME280;45943;53.148;8.204;2024-03-22T04:38:22;101631.34;;;14.26;100.00
49216;BME280;45943;53.148;8.204;2024-03-22T04:40:48;101614.75;;;14.30;100.00
49216;BME280;45943;53.148;8.204;2024-03-22T04:43:15;101621.50;;;14.25;100.00
49216;BME280;45943;53.148;8.204;2024-03-22T04:45:42;101614.91;;;14.29;100.00
49216;BME280;45943;53.148;8.204;2024-03-22T04:48:09;101605.94;;;14.28;100.00
49216;BME280;45943;53.148;8.204;2024-03-22T04:50:35;101600.28;;;14.31;100.00
49216;BME280;45943;53.148;8.204;2024-03-22T04:53:02;101601.28;;;14.30;100.00
49216;BME280;45943;53.148;8.204;2024-03-22T04:55:28;101603.03;;;14.20;100.00
49216;BME280;45943;53.148;8.204;2024-03-22T04:57:54;101605.22;;;14.26;100.00
49216;BME280;45943;53.148;8.204;2024-03-22T05:00:20;101613.06;;;14.29;100.00
49216;BME280;45943;53.148;8.204;2024-03-22T05:02:46;101606.56;;;14.21;100.00
49216;BME280;45943;53.148;8.204;2024-03-22T05:05:12;101605.13;;;14.17;100.00
49216;BME280;45943;53.148;8.204;2024-03-22T05:07:38;101592.09;;;14.22;100.00
49216;BME280;45943;53.148;8.204;2024-03-22T05:10:04;101598.72;;;14.29;100.00
49216;BME280;45943;53.148;8.204;2024-03-22T05:12:31;101599.22;;;14.23;100.00
49216;BME280;45943;53.148;8.204;2024-03-22T05:14:57;101591.09;;;14.23;100.00
49216;BME280;45943;53.148;8.204;2024-03-22T05:17:23;101589.63;;;14.30;100.00
49216;BME280;45943;53.148;8.204;2024-03-22T05:19:49;101589.47;;;14.31;100.00
49216;BME280;45943;53.148;8.204;2024-03-22T05:22:15;101583.88;;;14.23;100.00
49216;BME280;45943;53.148;8.204;2024-03-22T05:24:41;101576.25;;;14.28;100.00
49216;BME280;45943;53.148;8.204;2024-03-22T05:27:07;101569.75;;;14.31;100.00
49216;BME280;45943;53.148;8.204;2024-03-22T05:29:33;101579.28;;;14.35;100.00
49216;BME280;45943;53.148;8.204;2024-03-22T05:31:59;101576.84;;;14.32;100.00
49216;BME280;45943;53.148;8.204;2024-03-22T05:34:26;101564.06;;;14.34;100.00
49216;BME280;45943;53.148;8.204;2024-03-22T05:36:52;101561.50;;;14.32;100.00
49216;BME280;45943;53.148;8.204;2024-03-22T05:39:18;101561.38;;;14.34;100.00
49216;BME280;45943;53.148;8.204;2024-03-22T05:41:44;101563.34;;;14.32;100.00
49216;BME280;45943;53.148;8.204;2024-03-22T05:44:11;101552.19;;;14.37;100.00
49216;BME280;45943;53.148;8.204;2024-03-22T05:46:37;101548.63;;;14.36;100.00
49216;BME280;45943;53.148;8.204;2024-03-22T05:49:03;101542.25;;;14.37;100.00
49216;BME280;45943;53.148;8.204;2024-03-22T05:51:29;101543.75;;;14.30;100.00
49216;BME280;45943;53.148;8.204;2024-03-22T05:53:58;101539.69;;;14.35;100.00
49216;BME280;45943;53.148;8.204;2024-03-22T05:56:24;101547.44;;;14.29;100.00
49216;BME280;45943;53.148;8.204;2024-03-22T05:58:50;101537.09;;;14.34;100.00
49216;BME280;45943;53.148;8.204;2024-03-22T06:01:16;101532.16;;;14.39;100.00
49216;BME280;45943;53.148;8.204;2024-03-22T06:03:42;101537.69;;;14.38;100.00
49216;BME280;45943;53.148;8.204;2024-03-22T06:06:08;101535.22;;;14.46;100.00
49216;BME280;45943;53.148;8.204;2024-03-22T06:08:34;101524.72;;;14.31;100.00
49216;BME280;45943;53.148;8.204;2024-03-22T06:11:00;101523.56;;;14.45;100.00
49216;BME280;45943;53.148;8.204;2024-03-22T06:13:26;101521.09;;;14.42;100.00
49216;BME280;45943;53.148;8.204;2024-03-22T06:15:52;101528.88;;;14.35;100.00
49216;BME280;45943;53.148;8.204;2024-03-22T06:18:19;101535.00;;;14.38;100.00
49216;BME280;45943;53.148;8.204;2024-03-22T06:20:45;101535.56;;;14.41;100.00
49216;BME280;45943;53.148;8.204;2024-03-22T06:23:11;101533.88;;;14.40;100.00
49216;BME280;45943;53.148;8.204;2024-03-22T06:25:37;101520.00;;;14.45;100.00
49216;BME280;45943;53.148;8.204;2024-03-22T06:28:03;101530.03;;;14.43;100.00
49216;BME280;45943;53.148;8.204;2024-03-22T06:30:30;101526.41;;;14.32;100.00
49216;BME280;45943;53.148;8.204;2024-03-22T06:32:56;101535.16;;;14.25;100.00
49216;BME280;45943;53.148;8.204;2024-03-22T06:35:22;101541.75;;;14.32;100.00
49216;BME280;45943;53.148;8.204;2024-03-22T06:37:48;101534.13;;;14.37;100.00
49216;BME280;45943;53.148;8.204;2024-03-22T06:40:14;101544.25;;;14.24;100.00
49216;BME280;45943;53.148;8.204;2024-03-22T06:42:41;101530.75;;;14.24;100.00
49216;BME280;45943;53.148;8.204;2024-03-22T06:45:07;101524.13;;;14.28;100.00
49216;BME280;45943;53.148;8.204;2024-03-22T06:47:33;101530.97;;;14.32;100.00
49216;BME280;45943;53.148;8.204;2024-03-22T06:49:59;101503.59;;;14.37;100.00
49216;BME280;45943;53.148;8.204;2024-03-22T06:52:25;101495.28;;;14.28;100.00
49216;BME280;45943;53.148;8.204;2024-03-22T06:54:51;101489.63;;;14.31;100.00
49216;BME280;45943;53.148;8.204;2024-03-22T06:57:17;101497.59;;;14.33;100.00
49216;BME280;45943;53.148;8.204;2024-03-22T06:59:43;101510.63;;;14.28;100.00
49216;BME280;45943;53.148;8.204;2024-03-22T07:02:09;101504.63;;;14.24;100.00
49216;BME280;45943;53.148;8.204;2024-03-22T07:04:35;101492.59;;;14.28;100.00
49216;BME280;45943;53.148;8.204;2024-03-22T07:07:01;101509.03;;;14.25;100.00
49216;BME280;45943;53.148;8.204;2024-03-22T07:09:27;101499.13;;;14.26;100.00
49216;BME280;45943;53.148;8.204;2024-03-22T07:11:55;101498.56;;;14.11;100.00
49216;BME280;45943;53.148;8.204;2024-03-22T07:14:21;101514.09;;;13.98;100.00
49216;BME280;45943;53.148;8.204;2024-03-22T07:16:50;101502.59;;;14.17;100.00
49216;BME280;45943;53.148;8.204;2024-03-22T07:19:16;101496.66;;;14.23;100.00
49216;BME280;45943;53.148;8.204;2024-03-22T07:21:43;101506.66;;;14.11;100.00
49216;BME280;45943;53.148;8.204;2024-03-22T07:24:09;101493.53;;;14.18;100.00
49216;BME280;45943;53.148;8.204;2024-03-22T07:26:35;101497.22;;;14.17;100.00
49216;BME280;45943;53.148;8.204;2024-03-22T07:29:01;101507.47;;;14.23;100.00
49216;BME280;45943;53.148;8.204;2024-03-22T07:31:28;101507.47;;;14.23;100.00
49216;BME280;45943;53.148;8.204;2024-03-22T07:33:54;101502.13;;;14.12;100.00
49216;BME280;45943;53.148;8.204;2024-03-22T07:36:21;101505.41;;;14.15;100.00
49216;BME280;45943;53.148;8.204;2024-03-22T07:38:47;101503.13;;;14.11;100.00
49216;BME280;45943;53.148;8.204;2024-03-22T07:41:17;101499.44;;;14.12;100.00
49216;BME280;45943;53.148;8.204;2024-03-22T07:43:43;101502.84;;;14.14;100.00
49216;BME280;45943;53.148;8.204;2024-03-22T07:46:09;101497.66;;;14.22;100.00
49216;BME280;45943;53.148;8.204;2024-03-22T07:48:36;101488.84;;;14.20;100.00
49216;BME280;45943;53.148;8.204;2024-03-22T07:51:02;101484.94;;;14.13;100.00
49216;BME280;45943;53.148;8.204;2024-03-22T07:53:28;101492.66;;;14.17;100.00
49216;BME280;45943;53.148;8.204;2024-03-22T07:55:54;101488.84;;;14.20;100.00
49216;BME280;45943;53.148;8.204;2024-03-22T07:58:20;101488.19;;;14.06;100.00
49216;BME280;45943;53.148;8.204;2024-03-22T08:00:46;101483.50;;;14.09;100.00
49216;BME280;45943;53.148;8.204;2024-03-22T08:03:15;101468.50;;;14.16;100.00
49216;BME280;45943;53.148;8.204;2024-03-22T08:05:42;101470.41;;;14.04;100.00
49216;BME280;45943;53.148;8.204;2024-03-22T08:08:08;101462.31;;;14.04;100.00
49216;BME280;45943;53.148;8.204;2024-03-22T08:10:34;101469.94;;;13.99;100.00
49216;BME280;45943;53.148;8.204;2024-03-22T08:13:00;101467.31;;;14.09;100.00
49216;BME280;45943;53.148;8.204;2024-03-22T08:15:29;101478.19;;;14.18;100.00
49216;BME280;45943;53.148;8.204;2024-03-22T08:17:55;101478.56;;;14.14;100.00
49216;BME280;45943;53.148;8.204;2024-03-22T08:20:23;101472.19;;;14.15;100.00
49216;BME280;45943;53.148;8.204;2024-03-22T08:22:49;101475.94;;;14.23;100.00
49216;BME280;45943;53.148;8.204;2024-03-22T08:25:15;101474.78;;;14.16;100.00
49216;BME280;45943;53.148;8.204;2024-03-22T08:27:43;101479.41;;;14.14;100.00
49216;BME280;45943;53.148;8.204;2024-03-22T08:30:10;101473.94;;;14.25;100.00
49216;BME280;45943;53.148;8.204;2024-03-22T08:32:37;101478.13;;;14.29;100.00
49216;BME280;45943;53.148;8.204;2024-03-22T08:35:03;101477.25;;;14.29;100.00
49216;BME280;45943;53.148;8.204;2024-03-22T08:37:33;101475.41;;;14.29;100.00
49216;BME280;45943;53.148;8.204;2024-03-22T08:39:59;101459.09;;;14.31;100.00
49216;BME280;45943;53.148;8.204;2024-03-22T08:42:25;101457.81;;;14.35;100.00
49216;BME280;45943;53.148;8.204;2024-03-22T08:44:51;101456.25;;;14.32;100.00
49216;BME280;45943;53.148;8.204;2024-03-22T08:47:17;101461.59;;;14.23;100.00
49216;BME280;45943;53.148;8.204;2024-03-22T08:49:43;101447.56;;;14.29;100.00
49216;BME280;45943;53.148;8.204;2024-03-22T08:52:11;101460.41;;;14.37;100.00
49216;BME280;45943;53.148;8.204;2024-03-22T08:54:37;101452.84;;;14.30;100.00
49216;BME280;45943;53.148;8.204;2024-03-22T08:57:03;101453.19;;;14.16;100.00
49216;BME280;45943;53.148;8.204;2024-03-22T08:59:29;101444.69;;;14.21;100.00
49216;BME280;45943;53.148;8.204;2024-03-22T09:01:55;101447.19;;;14.13;100.00
49216;BME280;45943;53.148;8.204;2024-03-22T09:04:21;101459.03;;;14.21;100.00
49216;BME280;45943;53.148;8.204;2024-03-22T09:06:47;101456.59;;;14.18;100.00
49216;BME280;45943;53.148;8.204;2024-03-22T09:09:13;101449.09;;;14.22;100.00
49216;BME280;45943;53.148;8.204;2024-03-22T09:11:39;101451.91;;;14.20;100.00
49216;BME280;45943;53.148;8.204;2024-03-22T09:14:05;101453.28;;;14.15;100.00
49216;BME280;45943;53.148;8.204;2024-03-22T09:16:31;101458.69;;;13.94;100.00
49216;BME280;45943;53.148;8.204;2024-03-22T09:18:58;101459.09;;;13.89;100.00
49216;BME280;45943;53.148;8.204;2024-03-22T09:21:24;101457.31;;;13.99;100.00
49216;BME280;45943;53.148;8.204;2024-03-22T09:23:50;101454.63;;;13.99;100.00
49216;BME280;45943;53.148;8.204;2024-03-22T09:26:16;101445.13;;;14.05;100.00
49216;BME280;45943;53.148;8.204;2024-03-22T09:28:42;101446.59;;;14.09;100.00
49216;BME280;45943;53.148;8.204;2024-03-22T09:31:12;101447.97;;;14.03;100.00
49216;BME280;45943;53.148;8.204;2024-03-22T09:33:38;101452.06;;;13.98;100.00
49216;BME280;45943;53.148;8.204;2024-03-22T09:36:04;101447.09;;;14.03;100.00
49216;BME280;45943;53.148;8.204;2024-03-22T09:38:30;101450.59;;;14.15;100.00
49216;BME280;45943;53.148;8.204;2024-03-22T09:40:56;101444.88;;;14.08;100.00
49216;BME280;45943;53.148;8.204;2024-03-22T09:43:22;101443.81;;;13.99;100.00
49216;BME280;45943;53.148;8.204;2024-03-22T09:45:48;101449.94;;;13.81;100.00
49216;BME280;45943;53.148;8.204;2024-03-22T09:48:18;101454.69;;;13.88;100.00
49216;BME280;45943;53.148;8.204;2024-03-22T09:50:48;101452.19;;;13.96;100.00
49216;BME280;45943;53.148;8.204;2024-03-22T09:53:18;101445.06;;;13.95;100.00
49216;BME280;45943;53.148;8.204;2024-03-22T09:55:46;101436.88;;;13.97;100.00
49216;BME280;45943;53.148;8.204;2024-03-22T09:58:13;101438.31;;;14.01;100.00
49216;BME280;45943;53.148;8.204;2024-03-22T10:00:40;101440.16;;;14.00;100.00
49216;BME280;45943;53.148;8.204;2024-03-22T10:03:06;101446.72;;;14.07;100.00
49216;BME280;45943;53.148;8.204;2024-03-22T10:05:34;101433.19;;;13.98;100.00
49216;BME280;45943;53.148;8.204;2024-03-22T10:08:00;101442.06;;;14.10;100.00
49216;BME280;45943;53.148;8.204;2024-03-22T10:10:26;101435.53;;;14.12;100.00
49216;BME280;45943;53.148;8.204;2024-03-22T10:12:52;101430.13;;;14.12;100.00
49216;BME280;45943;53.148;8.204;2024-03-22T10:15:20;101432.44;;;14.17;100.00
49216;BME280;45943;53.148;8.204;2024-03-22T10:17:49;101426.31;;;14.15;100.00
49216;BME280;45943;53.148;8.204;2024-03-22T10:20:15;101427.09;;;14.05;100.00
49216;BME280;45943;53.148;8.204;2024-03-22T10:22:41;101438.22;;;13.91;100.00
49216;BME280;45943;53.148;8.204;2024-03-22T10:25:28;101441.50;;;13.95;100.00
49216;BME280;45943;53.148;8.204;2024-03-22T10:27:55;101427.72;;;14.09;100.00
49216;BME280;45943;53.148;8.204;2024-03-22T10:30:22;101430.59;;;14.17;100.00
49216;BME280;45943;53.148;8.204;2024-03-22T10:32:49;101427.91;;;14.17;100.00
49216;BME280;45943;53.148;8.204;2024-03-22T10:35:15;101427.56;;;14.11;100.00
49216;BME280;45943;53.148;8.204;2024-03-22T10:37:42;101432.84;;;14.12;100.00
49216;BME280;45943;53.148;8.204;2024-03-22T10:40:08;101444.03;;;14.07;100.00
49216;BME280;45943;53.148;8.204;2024-03-22T10:42:35;101427.72;;;14.09;100.00
49216;BME280;45943;53.148;8.204;2024-03-22T10:45:03;101435.94;;;14.07;100.00
49216;BME280;45943;53.148;8.204;2024-03-22T10:47:30;101429.09;;;14.03;100.00
49216;BME280;45943;53.148;8.204;2024-03-22T10:52:54;101425.22;;;14.17;100.00
49216;BME280;45943;53.148;8.204;2024-03-22T10:55:26;101427.06;;;14.17;100.00
49216;BME280;45943;53.148;8.204;2024-03-22T10:57:56;101431.47;;;14.18;100.00
49216;BME280;45943;53.148;8.204;2024-03-22T11:00:29;101437.78;;;14.07;100.00
49216;BME280;45943;53.148;8.204;2024-03-22T11:02:56;101437.31;;;14.23;100.00
49216;BME280;45943;53.148;8.204;2024-03-22T11:05:22;101427.63;;;14.20;100.00
49216;BME280;45943;53.148;8.204;2024-03-22T11:08:02;101424.94;;;14.20;100.00
49216;BME280;45943;53.148;8.204;2024-03-22T11:10:35;101421.19;;;14.12;100.00
49216;BME280;45943;53.148;8.204;2024-03-22T11:13:01;101414.47;;;14.27;100.00
49216;BME280;45943;53.148;8.204;2024-03-22T11:15:28;101408.94;;;14.28;100.00
49216;BME280;45943;53.148;8.204;2024-03-22T11:17:55;101411.72;;;14.17;100.00
49216;BME280;45943;53.148;8.204;2024-03-22T11:20:22;101412.78;;;14.26;100.00
49216;BME280;45943;53.148;8.204;2024-03-22T11:22:48;101410.78;;;14.28;100.00
49216;BME280;45943;53.148;8.204;2024-03-22T11:25:14;101408.63;;;14.22;100.00
49216;BME280;45943;53.148;8.204;2024-03-22T11:27:40;101396.81;;;14.23;100.00
49216;BME280;45943;53.148;8.204;2024-03-22T11:30:07;101402.94;;;14.25;100.00
49216;BME280;45943;53.148;8.204;2024-03-22T11:32:33;101397.81;;;14.22;100.00
49216;BME280;45943;53.148;8.204;2024-03-22T11:35:09;101397.91;;;14.11;100.00
49216;BME280;45943;53.148;8.204;2024-03-22T11:37:36;101390.53;;;14.13;100.00
49216;BME280;45943;53.148;8.204;2024-03-22T11:40:02;101393.00;;;14.25;100.00
49216;BME280;45943;53.148;8.204;2024-03-22T11:42:34;101389.94;;;14.09;100.00
49216;BME280;45943;53.148;8.204;2024-03-22T11:45:01;101387.69;;;14.14;100.00
49216;BME280;45943;53.148;8.204;2024-03-22T11:47:28;101384.66;;;14.28;100.00
49216;BME280;45943;53.148;8.204;2024-03-22T11:49:55;101382.00;;;14.38;100.00
49216;BME280;45943;53.148;8.204;2024-03-22T11:52:27;101384.38;;;14.31;100.00
49216;BME280;45943;53.148;8.204;2024-03-22T11:54:54;101385.28;;;14.42;100.00
49216;BME280;45943;53.148;8.204;2024-03-22T11:57:21;101386.00;;;14.44;100.00
49216;BME280;45943;53.148;8.204;2024-03-22T11:59:48;101384.84;;;14.37;100.00
49216;BME280;45943;53.148;8.204;2024-03-22T12:02:15;101387.78;;;14.33;100.00
49216;BME280;45943;53.148;8.204;2024-03-22T12:04:50;101374.13;;;14.46;100.00
49216;BME280;45943;53.148;8.204;2024-03-22T12:07:17;101376.84;;;14.35;100.00
49216;BME280;45943;53.148;8.204;2024-03-22T12:09:44;101375.75;;;14.38;100.00
49216;BME280;45943;53.148;8.204;2024-03-22T12:12:11;101372.06;;;14.39;100.00
49216;BME280;45943;53.148;8.204;2024-03-22T12:14:38;101367.00;;;14.45;100.00
49216;BME280;45943;53.148;8.204;2024-03-22T12:17:05;101376.72;;;14.57;100.00
49216;BME280;45943;53.148;8.204;2024-03-22T12:19:31;101380.84;;;14.61;100.00
49216;BME280;45943;53.148;8.204;2024-03-22T12:21:58;101385.06;;;14.54;100.00
49216;BME280;45943;53.148;8.204;2024-03-22T12:24:24;101384.22;;;14.54;100.00
49216;BME280;45943;53.148;8.204;2024-03-22T12:26:52;101380.13;;;14.59;100.00
49216;BME280;45943;53.148;8.204;2024-03-22T12:29:19;101379.59;;;14.66;100.00
49216;BME280;45943;53.148;8.204;2024-03-22T12:31:46;101370.03;;;14.61;100.00
49216;BME280;45943;53.148;8.204;2024-03-22T12:34:13;101370.66;;;14.65;100.00
49216;BME280;45943;53.148;8.204;2024-03-22T12:36:39;101365.09;;;14.67;100.00
49216;BME280;45943;53.148;8.204;2024-03-22T12:39:05;101364.28;;;14.76;100.00